Los Posos, Valles Caldera, New Mexico Weather observations

Data are for 10 minute period ending at time listed.
 Day   Time   Solar   Ave.   Ave.  Ave.  Vector  Max.   Baro.   Total    
  of    of     Rad.   Air    Rel.  Wind   Wind   Wind  Press.  Precip.   
Year   Day            Temp.  Hum.  Speed  Dir.   Gust                    
2015   (MST)  Kw/m2    F      %     mph   deg.    mph    mb.     in.     
-------------------------------------------------------------------------
  58   10:30   0.43   23.6    92    5.4   180     8.4   99999.0    0.01 
  58   10:40   0.44   23.3    92    4.8   175     9.0   99999.0    0.00 
  58   10:50   0.54   24.5    93    6.3   196    13.1   99999.0    0.01 
  58   11:00   0.70   24.8    92    8.7   198    14.3   99999.0    0.00 
  58   11:10   0.64   24.8    91    8.6   195    13.1   99999.0    0.01 
  58   11:20   0.52   24.6    91    7.8   195    13.7   99999.0    0.00 
  58   11:30   0.56   24.5    91    9.3   199    14.9   99999.0    0.01 
  58   11:40   0.29   23.3    90    7.7   197    11.9   99999.0    0.00 
  58   11:50   0.29   22.4    91    6.6   201    11.9   99999.0    0.00 
  58   12:00   0.43   22.7    92    7.2   215    12.5   99999.0    0.01 
  58   12:10   0.48   22.3    91    8.7   229    15.5   99999.0    0.00 
  58   12:20   0.34   23.1    92    6.0   209    10.2   99999.0    0.00 
  58   12:30   0.34   22.9    92    7.7   205    13.7   99999.0    0.00 
  58   12:40   0.41   23.1    92    6.6   216    10.8   99999.0    0.01 
  58   12:50   0.38   23.0    92    6.6   210    11.3   99999.0    0.00 
  58   13:00   0.34   22.2    91    6.0   209    10.2   99999.0    0.01 
  58   13:10   0.31   22.0    91    5.8   219    10.8   99999.0    0.00 
  58   13:20   0.31   20.8    90    7.4   238    13.1   99999.0    0.00 
  58   13:30   0.32   20.7    92    5.6   230     9.6   99999.0    0.00 
  58   13:40   0.31   21.1    92    6.6   212    11.3   99999.0    0.01 
  58   13:50   0.31   21.2    92    6.4   213    10.2   99999.0    0.00 
  58   14:00   0.28   21.2    91    6.6   218    11.3   99999.0    0.00 
  58   14:10   0.31   21.3    92    6.6   215    11.9   99999.0    0.01 
  58   14:20   0.29   21.8    92    5.3   199    11.9   99999.0    0.00 
  58   14:30   0.25   22.2    92    4.6   195    11.3   99999.0    0.00 
  58   14:40   0.21   22.1    92    4.8   181     9.6   99999.0    0.01 
  58   14:50   0.21   21.6    92    5.9   193    12.5   99999.0    0.00 
  58   15:00   0.21   21.5    92    5.4   203     9.0   99999.0    0.00 
  58   15:10   0.21   21.3    92    6.4   208    10.2   99999.0    0.01 
  58   15:20   0.23   21.1    92    5.8   224    10.2   99999.0    0.00 
  58   15:30   0.18   21.0    92    5.1   217    10.2   99999.0    0.00 
  58   15:40   0.15   21.0    92    4.8   222    10.8   99999.0    0.00 
  58   15:50   0.12   20.4    92    6.5   208    11.3   99999.0    0.00 
  58   16:00   0.10   20.2    93    5.8   198    10.2   99999.0    0.00 
  58   16:10   0.11   20.3    93    4.6   209     9.6   99999.0    0.01 
  58   16:20   0.10   20.5    93    4.9   209     9.6   99999.0    0.00 
  58   16:30   0.10   20.1    92    5.9   224    10.2   99999.0    0.01 
  58   16:40   0.07   19.9    93    4.7   217     9.0   99999.0    0.00 
  58   16:50   0.07   19.9    93    3.3   215     8.4   99999.0    0.00 
  58   17:00   0.05   19.9    93    3.9   214     8.4   99999.0    0.00 
  58   17:10   0.03   19.5    93    3.2   168     6.0   99999.0    0.01 
  58   17:20   0.02   18.9    92    2.9   175     6.0   99999.0    0.00 
  58   17:30   0.01   18.6    93    3.9   198     7.8   99999.0    0.00 
  58   17:40   0.01   18.4    93    4.3   223     9.0   99999.0    0.01 
  58   17:50   0.01   18.2    93    1.7   237     6.6   99999.0    0.01 
  58   18:00   0.00   18.2    93    0.1   342     2.4   99999.0    0.01 
  58   18:10   0.00   18.2    92    2.4   121     6.0   99999.0    0.02 
  58   18:20   0.00   17.7    92    2.6   139     4.8   99999.0    0.10 
  58   18:30   0.00   17.7    93    0.4     5     3.0   99999.0    0.04 
  58   18:40   0.00   17.8    93    0.9    59     3.0   99999.0    0.02 
  58   18:50   0.00   17.8    92    1.0    89     3.0   99999.0    0.00 
  58   19:00   0.00   17.8    92    2.0   171     4.8   99999.0    0.00 
  58   19:10   0.00   17.7    92    0.4   203     2.4   99999.0    0.00 
  58   19:20   0.00   17.7    92    0.4   265     3.0   99999.0    0.00 
  58   19:30   0.00   17.7    92    1.0   145     4.2   99999.0    0.00 
  58   19:40   0.00   17.7    93    1.4   176     4.2   99999.0    0.00 
  58   19:50   0.00   17.8    93    1.1   345     3.6   99999.0    0.00 
  58   20:00   0.00   17.9    93    1.4   325     3.0   99999.0    0.00 
  58   20:10   0.00   17.9    93    0.0     0     0.0   99999.0    0.00 
  58   20:20   0.00   17.9    92    0.0    62     1.2   99999.0    0.00 
  58   20:30   0.00   17.9    92    0.0     0     0.0   99999.0    0.00 
  58   20:40   0.00   17.8    92    0.0     0     0.0   99999.0    0.00 
  58   20:50   0.00   17.7    92    1.0   242     2.4   99999.0    0.00 
  58   21:00   0.00   17.8    93    0.6   334     2.4   99999.0    0.00 
  58   21:10   0.00   18.0    93    0.1   150     1.8   99999.0    0.00 
  58   21:20   0.00   18.2    93    0.0     0     0.0   99999.0    0.00 
  58   21:30   0.00   18.3    93    1.8   233     4.2   99999.0    0.00 
  58   21:40   0.00   18.5    93    1.4   203     3.6   99999.0    0.00 
  58   21:50   0.00   18.8    93    2.6   186     5.4   99999.0    0.00 
  58   22:00   0.00   18.9    93    1.9   162     3.6   99999.0    0.00 
  58   22:10   0.00   18.8    93    1.8   221     4.2   99999.0    0.00 
  58   22:20   0.00   18.8    93    2.1   203     4.2   99999.0    0.00 
  58   22:30   0.00   18.9    93    2.9   235     5.4   99999.0    0.00 
  58   22:40   0.00   18.9    93    2.2   222     3.6   99999.0    0.00 
  58   22:50   0.00   19.0    93    0.5   218     3.0   99999.0    0.00 
  58   23:00   0.00   19.0    93    0.5   248     1.8   99999.0    0.00 
  58   23:10   0.00   19.0    93    1.9   219     9.0   99999.0    0.00 
  58   23:20   0.00   19.0    93    2.0   204     4.8   99999.0    0.00 
  58   23:30   0.00   19.1    93    2.3   193     4.2   99999.0    0.00 
  58   23:40   0.00   19.1    93    2.6   178     4.8   99999.0    0.00 
  58   23:50   0.00   18.9    93    3.7   178     5.4   99999.0    0.00 
  59    0:00   0.00   18.9    93    2.1   205     5.4   99999.0    0.00 
  59    0:10   0.00   19.0    93    3.8   196     9.0   99999.0    0.00 
  59    0:20   0.00   19.3    94    4.7   193    11.3   99999.0    0.00 
  59    0:30   0.00   19.8    94    5.2   196     9.6   99999.0    0.00 
  59    0:40   0.00   20.0    94    5.2   200     7.8   99999.0    0.00 
  59    0:50   0.00   20.2    94    5.2   206     9.0   99999.0    0.00 
  59    1:00   0.00   20.4    94    6.4   198    13.1   99999.0    0.00 
  59    1:10   0.00   20.6    94    6.1   199    10.8   99999.0    0.00 
  59    1:20   0.00   20.6    94    5.8   196    13.1   99999.0    0.00 
  59    1:30   0.00   20.6    94    4.8   193     9.6   99999.0    0.00 
  59    1:40   0.00   20.6    94    5.0   191     9.0   99999.0    0.00 
  59    1:50   0.00   20.8    94    5.8   195    10.8   99999.0    0.00 
  59    2:00   0.00   21.1    94    6.0   200     9.6   99999.0    0.00 
  59    2:10   0.00   21.0    94    7.2   198    12.5   99999.0    0.00 
  59    2:20   0.00   20.8    94    6.4   185    10.2   99999.0    0.01 
  59    2:30   0.00   20.4    94    6.5   197    10.8   99999.0    0.00 
  59    2:40   0.00   20.2    94    2.8   209     6.6   99999.0    0.01 
  59    2:50   0.00   20.1    94    2.4   195     5.4   99999.0    0.00 
  59    3:00   0.00   19.8    93    2.8   196     4.2   99999.0    0.00 
  59    3:10   0.00   19.7    93    2.2   205     3.6   99999.0    0.01 
  59    3:20   0.00   19.6    93    2.0   216     3.6   99999.0    0.00 
  59    3:30   0.00   19.6    93    2.9   209     5.4   99999.0    0.01 
  59    3:40   0.00   19.7    94    1.9   227     4.2   99999.0    0.00 
  59    3:50   0.00   19.8    94    1.9   216     3.0   99999.0    0.01 
  59    4:00   0.00   19.9    94    3.3   220     6.0   99999.0    0.01 
  59    4:10   0.00   19.8    94    3.1   238     6.0   99999.0    0.01 
  59    4:20   0.00   19.7    93    2.2   231     4.2   99999.0    0.01 
  59    4:30   0.00   19.5    93    1.6   267     3.6   99999.0    0.01 
  59    4:40   0.00   19.4    93    0.8   305     2.4   99999.0    0.01 
  59    4:50   0.00   19.2    93    2.1   300     4.2   99999.0    0.00 
  59    5:00   0.00   19.1    93    2.8   286     4.8   99999.0    0.01 
  59    5:10   0.00   19.2    93    3.4   303     7.2   99999.0    0.01 
  59    5:20   0.00   19.0    93    3.3   280     6.0   99999.0    0.02 
  59    5:30   0.00   18.8    93    1.3   262     4.2   99999.0    0.01 
  59    5:40   0.00   18.8    93    1.2   268     3.0   99999.0    0.01 
  59    5:50   0.00   18.8    93    2.0   329     4.8   99999.0    0.00 
  59    6:00   0.00   18.7    93    0.1    17     1.8   99999.0    0.01 
  59    6:10   0.00   18.6    93    0.0     0     0.0   99999.0    0.01 
  59    6:20   0.00   18.5    93    0.1   207     1.2   99999.0    0.00 
  59    6:30   0.00   18.4    93    0.3   176     2.4   99999.0    0.01 
  59    6:40   0.00   18.4    93    0.4   171     1.8   99999.0    0.00 
  59    6:50   0.00   18.4    93    1.1   186     2.4   99999.0    0.01 
  59    7:00   0.00   18.4    93    0.9   326     2.4   99999.0    0.00 
  59    7:10   0.00   18.5    93    0.1   143     2.4   99999.0    0.00 
  59    7:20   0.00   18.5    93    0.5   162     2.4   99999.0    0.01 
  59    7:30   0.00   18.7    93    0.2   249     1.8   99999.0    0.00 
  59    7:40   0.01   18.9    93    0.9   234     2.4   99999.0    0.00 
  59    7:50   0.01   19.3    93    0.9   179     3.6   99999.0    0.01 
  59    8:00   0.02   19.7    94    2.9   204     4.2   99999.0    0.02 
  59    8:10   0.02   19.9    94    1.8   211     3.6   99999.0    0.00 
  59    8:20   0.02   20.4    94    1.8   195     3.6   99999.0    0.01 
  59    8:30   0.02   20.5    94    1.8   177     3.0   99999.0    0.04 
  59    8:40   0.01   20.3    94    1.5   183     4.8   99999.0    0.05 
  59    8:50   0.02   20.4    94    2.8   200     6.0   99999.0    0.01 
  59    9:00   0.04   20.8    94    3.8   187     6.0   99999.0    0.00 
  59    9:10   0.05   21.4    94    3.9   184     6.0   99999.0    0.00 
  59    9:20   0.05   21.9    95    3.8   203     6.6   99999.0    0.00 
  59    9:30   0.04   22.4    94    3.1   182     6.0   99999.0    0.02 
  59    9:40   0.04   22.0    94    3.0   177     4.8   99999.0    0.11 
  59    9:50   0.03   21.7    94    2.8   169     5.4   99999.0    0.05 
  59   10:00   0.04   21.7    94    3.1   192     5.4   99999.0    0.00 
  59   10:10   0.03   21.9    94    3.7   188     5.4   99999.0    0.00 
  59   10:20   0.03   21.9    94    4.1   187     7.2   99999.0    0.00 

Return to Los Posos, Valles Caldera graphs page.


Western Regional Climate Center,wrcc@dri.edu